Danbury, New Hampshire
Current Conditions -  °F | °C
As of 4:35 AM on Friday 24 Oct 2014 (Local Time) from K1P1 Reporting Station
Overcast Overcast  
Wind Chill: 44°   Ceiling: 2600
Heat Index: 47°   Visibility: 7mi
Dew Point: 47°   Wind: 6mph
Humidity: 100%   Direction: 270°W
Pressure: 29.72"   Gusts: NA
Location:  43.53°N, 71.86°W
Report Text: K1P1 240835Z AUTO 27005KT 7SM SCT015 OVC026 08/08 A2972 RMK AO2 T00810081
Loading
Personal Weather Stations






























Interactive Weather Map New forecast layout! Learn more

10-Day Weather Forecast

Advertisements
Track Severe Weather on mobile